Time;durP1;ratioP1;P1;durP2;ratioP2;P2;SDS_P1;SDS_P2;PMS_P1;PMS_P2;Temp;Humidity;BMP_temperature;BMP_pressure;BME280_temperature;BME280_humidity;BME280_pressure;Samples;Min_cycle;Max_cycle;Signal;HPM_P1;HPM_P2
2023/05/31 00:00:27;;;;;;;7.03;4.50;;;12.60;99.90;;;;;;4838394;29;47248;-80
2023/05/31 00:02:53;;;;;;;6.68;4.97;;;12.60;99.90;;;;;;4845179;29;36887;-80
2023/05/31 00:05:19;;;;;;;9.50;4.63;;;12.60;99.90;;;;;;4855535;29;35750;-80
2023/05/31 00:07:45;;;;;;;8.82;4.68;;;12.60;99.90;;;;;;4861476;29;36574;-80
2023/05/31 00:10:11;;;;;;;10.35;4.97;;;12.60;99.90;;;;;;4866826;29;38250;-81
2023/05/31 00:12:37;;;;;;;8.20;5.20;;;12.60;99.90;;;;;;4849764;29;37316;-80
2023/05/31 00:15:07;;;;;;;8.82;5.28;;;12.60;99.90;;;;;;4867125;29;37362;-81
2023/05/31 00:17:33;;;;;;;8.13;5.28;;;12.50;99.90;;;;;;4845057;29;47499;-80
2023/05/31 00:19:59;;;;;;;7.28;5.40;;;12.50;99.90;;;;;;4857300;29;39095;-80
2023/05/31 00:22:25;;;;;;;6.75;5.22;;;12.50;99.90;;;;;;4839527;29;37482;-79
2023/05/31 00:24:52;;;;;;;9.63;5.63;;;12.50;99.90;;;;;;4841063;29;36626;-81
2023/05/31 00:27:18;;;;;;;7.75;4.85;;;12.50;99.90;;;;;;4855660;29;38658;-80
2023/05/31 00:29:44;;;;;;;6.93;5.50;;;12.50;99.90;;;;;;4840099;29;38101;-80
2023/05/31 00:32:10;;;;;;;7.28;5.40;;;12.40;99.90;;;;;;4862348;29;38694;-80
2023/05/31 00:34:36;;;;;;;8.25;5.63;;;12.40;99.90;;;;;;4856074;29;35853;-80
2023/05/31 00:37:02;;;;;;;7.95;5.28;;;12.40;99.90;;;;;;4848457;29;37776;-80
2023/05/31 00:39:29;;;;;;;8.32;5.60;;;12.30;99.90;;;;;;4858944;29;38101;-80
2023/05/31 00:41:55;;;;;;;8.77;5.50;;;12.30;99.90;;;;;;4859498;29;37300;-81
2023/05/31 00:44:21;;;;;;;7.35;5.18;;;12.30;99.90;;;;;;4860321;29;36176;-79
2023/05/31 00:46:48;;;;;;;6.65;4.80;;;12.30;99.90;;;;;;4870199;29;38385;-79
2023/05/31 00:49:15;;;;;;;9.80;5.45;;;12.30;99.90;;;;;;4859591;29;37232;-79
2023/05/31 00:51:41;;;;;;;6.97;5.55;;;12.30;99.90;;;;;;4871868;29;37903;-78
2023/05/31 00:54:08;;;;;;;8.35;4.90;;;12.20;99.90;;;;;;4849362;29;37203;-79
2023/05/31 00:56:34;;;;;;;7.35;5.63;;;12.20;99.90;;;;;;4859256;29;38885;-78
2023/05/31 00:59:00;;;;;;;8.05;5.15;;;12.30;99.90;;;;;;4853934;29;37278;-79
2023/05/31 01:01:36;;;;;;;8.25;6.05;;;12.20;99.90;;;;;;5212753;23;38224;-76
2023/05/31 01:04:02;;;;;;;7.93;5.07;;;12.10;99.90;;;;;;4839827;29;35172;-80
2023/05/31 01:06:32;;;;;;;6.70;4.97;;;12.10;99.90;;;;;;4854645;29;37920;-80
2023/05/31 01:09:04;;;;;;;8.63;6.03;;;12.20;99.90;;;;;;4862969;29;38681;-81
2023/05/31 01:11:52;;;;;;;7.72;5.97;;;12.20;99.90;;;;;;4847586;29;47111;-81
2023/05/31 01:14:38;;;;;;;8.18;5.65;;;12.10;99.90;;;;;;4860036;29;38796;-81
2023/05/31 01:17:34;;;;;;;9.63;5.57;;;12.10;99.90;;;;;;4857949;29;38844;-81
2023/05/31 01:20:08;;;;;;;8.07;5.63;;;12.10;99.90;;;;;;4856091;29;38052;-81
2023/05/31 01:22:54;;;;;;;9.68;6.22;;;12.10;99.90;;;;;;4858047;29;49279;-81
2023/05/31 01:25:25;;;;;;;9.02;5.65;;;12.20;99.90;;;;;;4859792;29;36444;-81
2023/05/31 01:27:53;;;;;;;7.55;5.30;;;12.10;99.90;;;;;;4860807;29;40150;-81
2023/05/31 01:30:21;;;;;;;7.95;5.50;;;12.10;99.90;;;;;;4858539;29;38303;-81
2023/05/31 01:32:49;;;;;;;8.20;5.60;;;12.10;99.90;;;;;;4853599;29;38006;-80
2023/05/31 01:35:17;;;;;;;9.40;6.38;;;12.00;99.90;;;;;;4858451;29;36969;-80
2023/05/31 01:37:45;;;;;;;8.30;5.70;;;12.00;99.90;;;;;;4854780;29;38526;-80
2023/05/31 01:40:13;;;;;;;9.35;6.07;;;12.00;99.90;;;;;;4855837;29;38842;-80
2023/05/31 01:42:40;;;;;;;9.75;6.25;;;12.00;99.90;;;;;;4859491;29;36922;-80
2023/05/31 01:45:08;;;;;;;8.20;6.03;;;12.00;99.90;;;;;;4859725;29;37339;-81
2023/05/31 01:47:35;;;;;;;9.38;5.78;;;12.00;99.90;;;;;;4843042;29;37003;-81
2023/05/31 01:50:02;;;;;;;11.20;6.45;;;11.90;99.90;;;;;;4857014;29;38465;-81
2023/05/31 01:52:29;;;;;;;10.50;6.60;;;11.90;99.90;;;;;;4855585;29;37771;-81
2023/05/31 01:54:55;;;;;;;8.35;5.72;;;11.90;99.90;;;;;;4856677;29;37591;-80
2023/05/31 01:57:22;;;;;;;10.43;6.10;;;11.80;99.90;;;;;;4850573;29;39166;-81
2023/05/31 01:59:50;;;;;;;9.80;6.38;;;11.90;99.90;;;;;;4857815;29;38058;-81
2023/05/31 02:02:17;;;;;;;8.35;5.30;;;11.80;99.90;;;;;;4847372;29;37510;-80
2023/05/31 02:04:43;;;;;;;9.52;6.43;;;11.80;99.90;;;;;;4857982;29;37473;-80
2023/05/31 02:07:12;;;;;;;11.70;6.40;;;11.80;99.90;;;;;;4846367;29;37475;-81
2023/05/31 02:09:38;;;;;;;9.43;6.82;;;11.70;99.90;;;;;;4860527;29;39509;-80
2023/05/31 02:12:05;;;;;;;8.75;6.45;;;11.70;99.90;;;;;;4842080;29;36782;-81
2023/05/31 02:14:31;;;;;;;8.15;6.25;;;11.70;99.90;;;;;;4858202;29;36896;-81
2023/05/31 02:16:57;;;;;;;10.30;6.25;;;11.70;99.90;;;;;;4855755;29;37560;-81
2023/05/31 02:19:25;;;;;;;7.45;5.80;;;11.70;99.90;;;;;;4859910;29;38088;-80
2023/05/31 02:21:52;;;;;;;10.45;6.15;;;11.70;99.90;;;;;;4844150;29;37188;-81
2023/05/31 02:24:18;;;;;;;8.43;5.82;;;11.60;99.90;;;;;;4856874;29;35950;-80
2023/05/31 02:26:44;;;;;;;12.02;7.20;;;11.70;99.90;;;;;;4860065;29;40132;-81
2023/05/31 02:29:10;;;;;;;7.22;5.97;;;11.60;99.90;;;;;;4844686;29;37583;-81
2023/05/31 02:31:36;;;;;;;11.50;6.70;;;11.60;99.90;;;;;;4857891;29;37375;-80
2023/05/31 02:34:02;;;;;;;8.98;6.55;;;11.60;99.90;;;;;;4858455;29;36842;-80
2023/05/31 02:36:30;;;;;;;11.90;6.75;;;11.60;99.90;;;;;;4859082;29;37743;-81
2023/05/31 02:38:56;;;;;;;10.00;6.80;;;11.60;99.90;;;;;;4849826;29;39155;-80
2023/05/31 02:41:22;;;;;;;12.13;6.78;;;11.60;99.90;;;;;;4840077;29;38774;-81
2023/05/31 02:43:48;;;;;;;9.57;6.43;;;11.50;99.90;;;;;;4857800;29;36018;-81
2023/05/31 02:46:14;;;;;;;10.23;6.05;;;11.60;99.90;;;;;;4856436;29;39681;-81
2023/05/31 02:48:40;;;;;;;11.73;6.45;;;11.50;99.90;;;;;;4859512;29;38655;-81
2023/05/31 02:51:06;;;;;;;10.95;6.93;;;11.50;99.90;;;;;;4856193;29;38921;-81
2023/05/31 02:53:32;;;;;;;9.85;6.50;;;11.50;99.90;;;;;;4841832;29;36105;-81
2023/05/31 02:55:58;;;;;;;12.52;6.63;;;11.50;99.90;;;;;;4852357;29;38457;-80
2023/05/31 02:58:24;;;;;;;15.82;7.53;;;11.40;99.90;;;;;;4853875;29;37272;-81
2023/05/31 03:00:50;;;;;;;11.13;7.55;;;11.40;99.90;;;;;;4858805;29;37698;-80
2023/05/31 03:03:18;;;;;;;9.95;7.05;;;11.40;99.90;;;;;;4854236;29;37317;-81
2023/05/31 03:05:44;;;;;;;9.93;7.43;;;11.50;99.90;;;;;;4854101;29;39151;-81
2023/05/31 03:08:10;;;;;;;13.00;6.93;;;11.40;99.90;;;;;;4854186;29;39518;-80
2023/05/31 03:10:36;;;;;;;13.02;8.40;;;11.40;99.90;;;;;;4840992;29;36859;-80
2023/05/31 03:13:02;;;;;;;10.07;7.25;;;11.40;99.90;;;;;;4852358;29;37118;-81
2023/05/31 03:15:29;;;;;;;9.82;6.63;;;11.40;99.90;;;;;;4856767;29;39232;-81
2023/05/31 03:17:55;;;;;;;12.68;7.22;;;11.40;99.90;;;;;;4836637;29;36890;-79
2023/05/31 03:20:22;;;;;;;10.40;6.75;;;11.40;99.90;;;;;;4854897;29;37313;-80
2023/05/31 03:22:48;;;;;;;11.68;8.55;;;11.40;99.90;;;;;;4852283;29;35950;-80
2023/05/31 03:25:15;;;;;;;12.90;7.40;;;11.30;99.90;;;;;;4855832;29;38617;-81
2023/05/31 03:27:41;;;;;;;12.88;7.50;;;11.40;99.90;;;;;;4855477;29;39422;-80
2023/05/31 03:30:07;;;;;;;12.50;7.75;;;11.30;99.90;;;;;;4858764;29;38206;-81
2023/05/31 03:32:34;;;;;;;15.65;8.27;;;11.30;99.90;;;;;;4854976;29;36887;-80
2023/05/31 03:35:00;;;;;;;12.75;7.78;;;11.30;99.90;;;;;;4860976;29;38714;-81
2023/05/31 03:37:26;;;;;;;11.02;7.30;;;11.30;99.90;;;;;;4840463;29;37614;-81
2023/05/31 03:39:52;;;;;;;14.82;8.77;;;11.30;99.90;;;;;;4861927;29;38092;-81
2023/05/31 03:42:18;;;;;;;12.82;8.00;;;11.30;99.90;;;;;;4858770;29;35809;-81
2023/05/31 03:44:44;;;;;;;16.67;8.50;;;11.30;99.90;;;;;;4857440;29;38644;-80
2023/05/31 03:47:11;;;;;;;11.18;8.93;;;11.40;99.90;;;;;;4856774;29;38432;-80
2023/05/31 03:49:37;;;;;;;11.98;8.55;;;11.40;99.90;;;;;;4861415;29;36764;-80
2023/05/31 03:52:03;;;;;;;13.27;8.88;;;11.40;99.90;;;;;;4859447;29;36203;-82
2023/05/31 03:54:30;;;;;;;13.63;8.88;;;11.40;99.90;;;;;;4858607;29;39022;-80
2023/05/31 03:56:56;;;;;;;12.02;8.45;;;11.40;99.90;;;;;;4852587;29;38526;-80
2023/05/31 03:59:22;;;;;;;15.25;9.85;;;11.40;99.90;;;;;;4861827;29;36750;-80
2023/05/31 04:01:48;;;;;;;11.77;8.18;;;11.50;99.90;;;;;;4843561;29;36039;-80
2023/05/31 04:04:14;;;;;;;15.52;9.65;;;11.50;99.90;;;;;;4841773;29;39086;-80
2023/05/31 04:06:40;;;;;;;12.52;8.70;;;11.50;99.90;;;;;;4855915;29;38172;-81
2023/05/31 04:09:06;;;;;;;12.73;9.52;;;11.50;99.90;;;;;;4861788;29;38731;-81
2023/05/31 04:11:33;;;;;;;12.50;8.98;;;11.50;99.90;;;;;;4857611;29;35922;-80
2023/05/31 04:13:59;;;;;;;14.27;9.98;;;11.60;99.90;;;;;;4859296;29;39042;-81
2023/05/31 04:16:25;;;;;;;12.77;9.15;;;11.60;99.90;;;;;;4855140;29;38915;-80
2023/05/31 04:18:51;;;;;;;16.55;9.18;;;11.60;99.90;;;;;;4845090;29;38208;-80
2023/05/31 04:21:17;;;;;;;14.98;9.63;;;11.60;99.90;;;;;;4856777;29;37201;-81
2023/05/31 04:23:43;;;;;;;12.52;9.20;;;11.70;99.90;;;;;;4861784;29;39137;-81
2023/05/31 04:26:16;;;;;;;12.90;9.20;;;11.70;99.90;;;;;;4860521;29;38713;-80
2023/05/31 04:28:43;;;;;;;12.82;9.57;;;11.70;99.90;;;;;;4852193;29;38504;-81
2023/05/31 04:31:10;;;;;;;17.27;9.77;;;11.70;99.90;;;;;;4852828;29;36365;-81
2023/05/31 04:33:36;;;;;;;13.93;9.55;;;11.70;99.90;;;;;;4858905;29;37371;-80
2023/05/31 04:36:04;;;;;;;13.70;9.00;;;11.80;99.90;;;;;;4859715;29;38551;-81
2023/05/31 04:38:32;;;;;;;14.60;8.85;;;11.80;99.90;;;;;;4859551;29;36988;-81
2023/05/31 04:40:59;;;;;;;12.85;8.35;;;11.80;99.90;;;;;;4860036;29;37336;-80
2023/05/31 04:43:26;;;;;;;16.52;8.98;;;11.80;99.90;;;;;;4862795;29;37685;-81
2023/05/31 04:45:55;;;;;;;15.00;8.45;;;11.80;99.90;;;;;;4855265;29;38482;-80
2023/05/31 04:48:22;;;;;;;11.60;8.32;;;11.80;99.90;;;;;;4844917;29;37340;-80
2023/05/31 04:50:48;;;;;;;16.17;8.10;;;11.80;99.90;;;;;;4849940;29;35976;-79
2023/05/31 04:53:14;;;;;;;12.80;8.77;;;11.90;99.90;;;;;;4861765;29;38225;-80
2023/05/31 04:55:41;;;;;;;14.45;8.38;;;11.90;99.90;;;;;;4873012;29;38812;-81
2023/05/31 04:58:08;;;;;;;10.45;7.50;;;11.90;99.90;;;;;;4857435;29;38120;-81
2023/05/31 05:00:34;;;;;;;12.80;8.38;;;11.90;99.90;;;;;;4875671;29;37631;-82
2023/05/31 05:03:00;;;;;;;10.30;7.90;;;12.00;99.90;;;;;;4861023;29;38075;-80
2023/05/31 05:05:27;;;;;;;11.55;6.80;;;12.20;99.90;;;;;;4834632;29;38484;-80
2023/05/31 05:07:55;;;;;;;12.82;8.27;;;12.50;99.90;;;;;;4859547;29;38325;-80
2023/05/31 05:10:23;;;;;;;10.60;8.20;;;12.70;99.90;;;;;;4859944;29;36871;-80
2023/05/31 05:12:49;;;;;;;13.93;8.23;;;12.90;99.90;;;;;;4866206;29;38061;-80
2023/05/31 05:15:15;;;;;;;12.88;7.40;;;13.00;99.90;;;;;;4865856;29;37815;-81
2023/05/31 05:17:44;;;;;;;11.65;8.05;;;13.20;99.90;;;;;;4857203;29;37509;-81
2023/05/31 05:20:10;;;;;;;12.70;7.78;;;13.30;99.90;;;;;;4865871;29;35128;-81
2023/05/31 05:22:37;;;;;;;9.80;7.63;;;13.50;99.90;;;;;;4869103;29;39359;-80
2023/05/31 05:25:03;;;;;;;11.82;7.50;;;13.50;99.90;;;;;;4859281;29;38245;-80
2023/05/31 05:27:29;;;;;;;14.50;8.10;;;13.50;99.90;;;;;;4847345;29;36109;-82
2023/05/31 05:29:55;;;;;;;10.50;7.63;;;13.50;99.90;;;;;;4875525;29;37489;-81
2023/05/31 05:32:21;;;;;;;11.15;7.53;;;13.70;99.90;;;;;;4871495;29;40306;-81
2023/05/31 05:34:48;;;;;;;14.18;8.18;;;13.80;99.90;;;;;;4870613;29;37738;-81
2023/05/31 05:37:14;;;;;;;14.18;8.40;;;13.80;99.90;;;;;;4876985;29;38946;-81
2023/05/31 05:39:40;;;;;;;10.75;7.82;;;13.90;99.90;;;;;;4873191;29;38763;-81
2023/05/31 05:42:07;;;;;;;13.27;8.60;;;14.00;99.90;;;;;;4863456;29;37634;-80
2023/05/31 05:44:33;;;;;;;12.82;8.45;;;14.10;99.90;;;;;;4862051;29;38884;-81
2023/05/31 05:46:59;;;;;;;13.00;7.40;;;14.10;99.90;;;;;;4864964;29;39527;-80
2023/05/31 05:49:26;;;;;;;13.68;8.00;;;14.20;99.90;;;;;;4855760;29;37355;-81
2023/05/31 05:51:52;;;;;;;11.80;8.07;;;14.30;99.90;;;;;;4874173;29;40310;-81
2023/05/31 05:54:19;;;;;;;9.98;8.15;;;14.30;99.90;;;;;;4869117;29;39023;-83
2023/05/31 05:56:47;;;;;;;13.68;8.55;;;14.30;99.90;;;;;;4867558;29;38725;-81
2023/05/31 05:59:13;;;;;;;10.30;8.02;;;14.20;99.90;;;;;;4874178;29;37602;-82
2023/05/31 06:01:42;;;;;;;13.20;8.45;;;14.40;99.90;;;;;;4867670;29;38763;-81
2023/05/31 06:04:09;;;;;;;11.90;7.55;;;14.70;99.90;;;;;;4849966;29;37354;-81
2023/05/31 06:06:38;;;;;;;12.98;8.20;;;14.80;99.90;;;;;;4864988;29;37918;-80
2023/05/31 06:09:05;;;;;;;12.65;8.68;;;15.00;99.90;;;;;;4861151;29;37197;-78
2023/05/31 06:11:31;;;;;;;10.85;8.77;;;15.10;99.90;;;;;;4865100;29;38600;-79
2023/05/31 06:13:57;;;;;;;15.07;8.55;;;15.20;99.90;;;;;;4843661;29;38555;-78
2023/05/31 06:16:24;;;;;;;17.52;9.25;;;15.40;99.90;;;;;;4843186;29;37482;-78
2023/05/31 06:18:50;;;;;;;14.23;9.15;;;15.40;96.00;;;;;;4858498;29;37302;-78
2023/05/31 06:21:16;;;;;;;14.35;8.73;;;15.40;98.90;;;;;;4855241;29;38509;-79
2023/05/31 06:23:43;;;;;;;12.82;9.10;;;15.50;99.90;;;;;;4854178;29;39167;-78
2023/05/31 06:26:09;;;;;;;13.85;8.90;;;15.80;97.70;;;;;;4853242;29;38164;-79
2023/05/31 06:28:36;;;;;;;12.02;9.25;;;15.90;95.70;;;;;;4853131;29;37998;-78
2023/05/31 06:31:02;;;;;;;15.38;8.93;;;16.00;94.10;;;;;;4854474;29;37705;-78
2023/05/31 06:33:28;;;;;;;11.15;8.60;;;16.10;89.20;;;;;;4843983;29;37262;-80
2023/05/31 06:35:55;;;;;;;14.85;9.00;;;16.20;89.80;;;;;;4835590;29;38145;-80
2023/05/31 06:38:21;;;;;;;10.55;8.18;;;16.20;90.90;;;;;;4834911;29;36796;-82
2023/05/31 06:40:49;;;;;;;16.23;9.15;;;16.30;89.40;;;;;;4854169;29;20535;-79
2023/05/31 06:43:15;;;;;;;12.70;8.55;;;16.40;87.10;;;;;;4837635;29;38071;-80
2023/05/31 06:45:41;;;;;;;12.95;9.00;;;16.50;85.30;;;;;;4855116;29;38166;-80
2023/05/31 06:48:11;;;;;;;11.57;8.43;;;16.50;76.80;;;;;;4855898;29;38836;-78
2023/05/31 06:50:37;;;;;;;13.70;8.82;;;16.50;87.40;;;;;;4854231;29;39868;-79
2023/05/31 06:53:03;;;;;;;14.98;8.98;;;16.50;77.30;;;;;;4837690;29;39140;-80
2023/05/31 06:55:29;;;;;;;13.20;8.40;;;16.60;91.10;;;;;;4852974;29;37116;-82
2023/05/31 06:57:56;;;;;;;12.55;9.55;;;16.70;74.40;;;;;;4850388;29;36075;-80
2023/05/31 07:00:22;;;;;;;15.52;9.02;;;16.80;75.00;;;;;;4852056;29;37732;-79
2023/05/31 07:02:48;;;;;;;11.20;7.85;;;16.90;67.60;;;;;;4836245;29;37773;-79
2023/05/31 07:05:14;;;;;;;15.57;8.55;;;17.00;77.40;;;;;;4829507;29;39082;-79
2023/05/31 07:07:40;;;;;;;14.93;8.98;;;17.20;68.80;;;;;;4851037;29;37331;-80
2023/05/31 07:10:07;;;;;;;14.35;9.13;;;17.20;52.40;;;;;;4844774;29;38306;-82
2023/05/31 07:12:33;;;;;;;13.27;8.20;;;17.00;62.00;;;;;;4853608;29;37032;-80
2023/05/31 07:14:59;;;;;;;11.98;8.38;;;17.20;67.30;;;;;;4854708;29;39018;-79
2023/05/31 07:17:25;;;;;;;14.15;8.43;;;17.30;58.20;;;;;;4836559;29;37043;-85
2023/05/31 07:19:51;;;;;;;11.25;8.07;;;17.50;64.80;;;;;;4852416;29;39798;-80
2023/05/31 07:22:18;;;;;;;14.25;8.85;;;17.70;53.00;;;;;;4853548;29;38555;-83
2023/05/31 07:24:44;;;;;;;12.73;8.60;;;17.70;45.70;;;;;;4854595;29;38842;-79
2023/05/31 07:27:10;;;;;;;14.73;8.07;;;17.70;54.70;;;;;;4851408;29;36975;-80
2023/05/31 07:29:37;;;;;;;15.20;8.27;;;18.00;53.60;;;;;;4838914;29;39025;-80
2023/05/31 07:32:03;;;;;;;15.25;8.88;;;18.00;46.50;;;;;;4837070;29;37537;-80
2023/05/31 07:34:29;;;;;;;12.77;8.40;;;18.30;43.10;;;;;;4854130;29;37928;-78
2023/05/31 07:36:55;;;;;;;13.73;8.35;;;18.20;37.60;;;;;;4837681;29;37237;-81
2023/05/31 07:39:22;;;;;;;12.52;7.95;;;18.20;38.70;;;;;;4838595;29;38450;-80
2023/05/31 07:41:48;;;;;;;16.13;8.80;;;18.10;34.80;;;;;;4853306;29;37450;-79
2023/05/31 07:44:16;;;;;;;11.10;7.60;;;18.20;44.30;;;;;;4854465;29;37976;-80
2023/05/31 07:46:42;;;;;;;11.32;7.93;;;18.60;46.70;;;;;;4853890;29;37487;-79
2023/05/31 07:49:09;;;;;;;12.75;8.32;;;18.60;24.40;;;;;;4840121;29;38211;-78
2023/05/31 07:51:35;;;;;;;17.70;8.73;;;18.70;18.80;;;;;;4853072;29;37449;-80
2023/05/31 07:54:02;;;;;;;14.07;8.77;;;18.70;10.40;;;;;;4858013;29;37939;-79
2023/05/31 07:56:29;;;;;;;13.43;8.75;;;18.90;11.70;;;;;;4855418;29;37409;-79
2023/05/31 07:58:55;;;;;;;14.60;8.30;;;19.10;11.40;;;;;;4855365;29;39477;-78
2023/05/31 08:01:22;;;;;;;16.70;8.13;;;19.30;1.00;;;;;;4835715;29;37193;-79
2023/05/31 08:03:49;;;;;;;13.20;8.02;;;19.20;1.00;;;;;;4851902;29;37090;-79
2023/05/31 08:06:16;;;;;;;15.85;8.70;;;19.30;1.00;;;;;;4854091;29;37100;-78
2023/05/31 08:08:43;;;;;;;18.20;8.13;;;19.10;1.00;;;;;;4854687;29;40114;-79
2023/05/31 08:11:10;;;;;;;12.82;7.63;;;19.10;6.30;;;;;;4852558;29;39359;-79
2023/05/31 08:13:37;;;;;;;13.35;7.68;;;19.40;1.00;;;;;;4853430;29;39060;-78
2023/05/31 08:16:04;;;;;;;13.88;8.00;;;19.60;1.00;;;;;;4852637;29;37628;-78
2023/05/31 08:18:30;;;;;;;13.48;7.82;;;19.70;1.00;;;;;;4856738;29;38459;-78
2023/05/31 08:20:57;;;;;;;11.98;8.05;;;20.10;1.00;;;;;;4856199;29;37402;-78
2023/05/31 08:23:23;;;;;;;13.50;7.80;;;20.50;1.00;;;;;;4854021;29;37605;-77
2023/05/31 08:25:51;;;;;;;15.80;8.13;;;20.60;1.00;;;;;;4855884;29;37487;-79
2023/05/31 08:28:17;;;;;;;12.85;7.18;;;20.50;1.00;;;;;;4839925;29;39362;-79
2023/05/31 08:30:43;;;;;;;12.05;8.10;;;20.50;1.00;;;;;;4837989;29;38543;-80
2023/05/31 08:33:09;;;;;;;13.25;7.82;;;20.80;1.00;;;;;;4853256;29;38276;-79
2023/05/31 08:35:35;;;;;;;15.15;7.35;;;21.00;1.00;;;;;;4852949;29;38122;-79
2023/05/31 08:38:01;;;;;;;17.75;7.28;;;21.10;99.90;;;;;;4845635;29;38936;-81
2023/05/31 08:40:27;;;;;;;10.93;6.50;;;21.10;99.90;;;;;;4854779;29;47360;-78
2023/05/31 08:43:02;;;;;;;13.80;6.97;;;21.20;1.00;;;;;;4858444;29;38850;-78
2023/05/31 08:45:29;;;;;;;11.25;6.65;;;21.40;1.00;;;;;;4860627;29;49960;-79
2023/05/31 08:48:00;;;;;;;14.35;7.55;;;21.50;99.90;;;;;;4839568;29;37553;-79
2023/05/31 08:50:27;;;;;;;9.15;6.85;;;21.40;1.00;;;;;;4853334;29;37612;-78
2023/05/31 08:52:55;;;;;;;14.95;7.32;;;21.50;1.00;;;;;;4841407;29;37970;-79
2023/05/31 08:55:24;;;;;;;10.43;6.70;;;21.80;99.90;;;;;;4841229;29;35918;-79
2023/05/31 08:57:51;;;;;;;15.80;7.88;;;21.80;99.90;;;;;;4856721;29;39343;-78
2023/05/31 09:00:20;;;;;;;13.98;6.88;;;21.90;1.00;;;;;;4841020;29;38623;-79
2023/05/31 09:02:47;;;;;;;12.68;6.43;;;21.70;99.90;;;;;;4849203;29;47300;-79
2023/05/31 09:05:14;;;;;;;10.93;6.65;;;21.50;1.00;;;;;;4855193;29;36211;-79
2023/05/31 09:07:40;;;;;;;14.13;8.07;;;21.50;1.00;;;;;;4858025;29;38416;-78
2023/05/31 09:10:08;;;;;;;15.30;6.70;;;21.50;99.90;;;;;;4856182;29;38194;-79
2023/05/31 09:12:35;;;;;;;10.98;6.88;;;21.70;1.00;;;;;;4840763;29;38695;-78
2023/05/31 09:15:03;;;;;;;13.80;7.07;;;22.10;1.00;;;;;;4857442;29;37917;-78
2023/05/31 09:17:31;;;;;;;11.25;7.30;;;22.50;1.00;;;;;;4855148;29;38894;-78
2023/05/31 09:20:00;;;;;;;22.60;8.18;;;22.50;1.00;;;;;;4856847;29;38491;-78
2023/05/31 09:22:26;;;;;;;15.45;6.65;;;22.30;99.90;;;;;;4840209;29;37185;-79
2023/05/31 09:24:57;;;;;;;10.80;5.47;;;22.20;1.00;;;;;;4857431;29;37362;-78
2023/05/31 09:27:25;;;;;;;8.07;5.73;;;22.30;39.30;;;;;;4853235;29;39704;-78
2023/05/31 09:29:53;;;;;;;13.48;6.35;;;22.30;1.00;;;;;;4856492;29;37293;-78
2023/05/31 09:32:20;;;;;;;14.77;6.82;;;22.60;1.00;;;;;;4836736;29;38781;-78
2023/05/31 09:34:46;;;;;;;10.80;6.55;;;22.60;99.90;;;;;;4837656;29;36107;-78
2023/05/31 09:37:23;;;;;;;13.98;7.50;;;22.40;19.50;;;;;;4855048;29;38908;-78
2023/05/31 09:39:57;;;;;;;10.38;6.88;;;22.50;1.00;;;;;;4856387;29;38267;-78
2023/05/31 09:42:26;;;;;;;11.90;6.20;;;22.60;99.90;;;;;;4848784;29;39181;-78
2023/05/31 09:44:52;;;;;;;11.40;6.75;;;22.70;1.00;;;;;;4856733;29;38061;-78
2023/05/31 09:47:27;;;;;;;13.02;6.28;;;22.70;1.00;;;;;;4851300;29;39723;-78
2023/05/31 09:49:55;;;;;;;13.90;6.25;;;22.90;1.00;;;;;;4856168;29;38604;-77
2023/05/31 09:52:30;;;;;;;11.55;6.38;;;22.80;99.90;;;;;;4835728;29;37007;-82
2023/05/31 09:54:57;;;;;;;16.48;7.57;;;22.90;1.00;;;;;;4854938;29;35990;-81
2023/05/31 09:57:31;;;;;;;15.25;6.60;;;22.90;1.00;;;;;;4855892;29;38658;-77
2023/05/31 09:59:59;;;;;;;12.15;6.40;;;22.70;99.90;;;;;;4831824;29;38704;-78
2023/05/31 10:02:29;;;;;;;12.68;6.75;;;22.90;1.00;;;;;;4850091;29;38698;-78
2023/05/31 10:04:58;;;;;;;13.90;6.43;;;22.90;99.90;;;;;;4856195;29;37401;-78
2023/05/31 10:07:26;;;;;;;16.17;7.05;;;23.00;1.00;;;;;;4854245;29;38867;-79
2023/05/31 10:09:52;;;;;;;10.57;6.28;;;23.00;99.90;;;;;;4839978;29;37722;-78
2023/05/31 10:12:25;;;;;;;14.05;6.55;;;23.30;99.90;;;;;;4854584;29;37336;-79
2023/05/31 10:14:57;;;;;;;11.05;5.95;;;23.40;99.90;;;;;;4855658;29;37412;-78
2023/05/31 10:17:27;;;;;;;12.00;6.00;;;23.40;99.90;;;;;;4855556;29;38250;-78
2023/05/31 10:20:00;;;;;;;11.77;6.43;;;23.80;23.10;;;;;;4853135;29;38297;-78
2023/05/31 10:22:30;;;;;;;9.95;5.75;;;23.70;1.00;;;;;;4855143;29;38847;-80
2023/05/31 10:25:18;;;;;;;13.77;6.78;;;23.90;1.00;;;;;;4856637;29;38174;-79
2023/05/31 10:27:48;;;;;;;13.75;6.75;;;23.90;1.00;;;;;;4846924;29;47291;-79
2023/05/31 10:30:17;;;;;;;11.60;7.07;;;23.90;1.00;;;;;;4854528;29;39176;-78
2023/05/31 10:32:47;;;;;;;12.07;6.75;;;23.70;94.50;;;;;;4854134;29;38172;-79
2023/05/31 10:35:14;;;;;;;10.45;6.43;;;23.80;99.90;;;;;;4853207;29;36196;-79
2023/05/31 10:37:42;;;;;;;11.13;6.13;;;24.10;99.90;;;;;;4850073;29;39657;-78
2023/05/31 10:40:23;;;;;;;15.60;5.85;;;24.00;1.00;;;;;;4839020;29;38003;-79
2023/05/31 10:43:16;;;;;;;14.07;6.72;;;24.30;1.00;;;;;;4838911;29;37196;-80
2023/05/31 10:45:48;;;;;;;9.13;5.82;;;24.40;99.90;;;;;;4851786;29;50091;-81
2023/05/31 10:48:21;;;;;;;9.30;5.60;;;24.40;99.90;;;;;;4836684;29;37591;-80
2023/05/31 10:50:55;;;;;;;11.32;5.75;;;24.50;1.00;;;;;;4851701;29;38011;-80
2023/05/31 10:53:22;;;;;;;10.25;6.03;;;24.60;1.00;;;;;;4849261;29;38835;-80
2023/05/31 10:55:49;;;;;;;10.23;5.88;;;24.60;1.00;;;;;;4851991;29;37614;-80
2023/05/31 10:58:29;;;;;;;10.77;5.10;;;24.40;1.00;;;;;;4852329;29;37575;-80
2023/05/31 11:00:56;;;;;;;13.35;5.60;;;24.40;1.00;;;;;;4844495;29;38616;-80
2023/05/31 11:03:24;;;;;;;8.88;5.97;;;24.70;1.00;;;;;;4855386;29;38074;-80
2023/05/31 11:06:01;;;;;;;8.70;5.43;;;24.70;99.90;;;;;;4853763;29;36064;-80
2023/05/31 11:08:28;;;;;;;9.70;5.18;;;24.60;1.00;;;;;;4848701;29;49073;-80
2023/05/31 11:11:44;;;;;;;11.20;5.18;;;24.70;99.90;;;;;;4835748;29;37264;-79
2023/05/31 11:14:27;;;;;;;16.67;5.55;;;24.80;99.90;;;;;;4848693;29;48462;-82
2023/05/31 11:16:53;;;;;;;10.63;6.13;;;24.70;1.00;;;;;;4834403;29;36535;-80
2023/05/31 11:19:24;;;;;;;10.27;5.18;;;25.00;1.00;;;;;;4852507;29;39042;-80
2023/05/31 11:21:55;;;;;;;11.23;5.82;;;25.10;1.00;;;;;;4839131;29;37130;-81
2023/05/31 11:24:53;;;;;;;11.93;4.90;;;24.90;1.00;;;;;;4839051;29;38004;-79
2023/05/31 11:27:21;;;;;;;10.50;5.20;;;24.70;1.00;;;;;;4852045;29;37549;-79
2023/05/31 11:29:53;;;;;;;11.30;5.85;;;24.70;1.00;;;;;;4852584;29;38759;-79
2023/05/31 11:32:21;;;;;;;16.23;5.95;;;24.90;1.00;;;;;;4837887;29;38910;-79
2023/05/31 11:35:01;;;;;;;11.82;4.63;;;25.00;1.00;;;;;;4855616;29;38400;-80
2023/05/31 11:37:34;;;;;;;12.35;6.03;;;25.20;1.00;;;;;;4852046;29;37605;-81
2023/05/31 11:40:05;;;;;;;9.48;5.50;;;25.20;1.00;;;;;;4853019;29;38501;-80
2023/05/31 11:42:33;;;;;;;17.70;6.40;;;24.90;1.00;;;;;;4834337;29;47143;-80
2023/05/31 11:45:10;;;;;;;12.05;6.05;;;25.00;1.00;;;;;;4836646;29;38027;-79
2023/05/31 11:47:53;;;;;;;11.40;5.00;;;25.30;1.00;;;;;;4854642;29;47869;-82
2023/05/31 11:50:19;;;;;;;10.00;4.95;;;25.30;99.90;;;;;;4829695;29;38856;-80
2023/05/31 11:52:46;;;;;;;14.30;5.63;;;25.10;99.90;;;;;;4858187;29;38835;-80
2023/05/31 11:55:16;;;;;;;12.68;5.45;;;25.30;1.00;;;;;;4857864;29;38317;-80
2023/05/31 11:57:44;;;;;;;10.18;4.88;;;25.60;1.00;;;;;;4841946;29;38402;-80
2023/05/31 12:00:21;;;;;;;36.92;7.82;;;25.50;1.00;;;;;;4854149;29;38784;-80
2023/05/31 12:02:53;;;;;;;9.85;5.07;;;25.30;99.90;;;;;;4835629;29;47088;-79
2023/05/31 12:05:22;;;;;;;8.70;5.30;;;25.30;99.90;;;;;;4840365;29;37150;-80
2023/05/31 12:07:53;;;;;;;10.80;5.00;;;25.30;99.90;;;;;;4858689;29;38688;-80
2023/05/31 12:10:20;;;;;;;11.48;5.78;;;25.20;1.00;;;;;;4829988;29;38283;-80
2023/05/31 12:12:46;;;;;;;9.25;5.88;;;25.30;99.90;;;;;;4858530;29;38674;-80
2023/05/31 12:15:17;;;;;;;10.18;5.38;;;25.30;99.90;;;;;;4835152;29;37567;-80
2023/05/31 12:17:43;;;;;;;8.73;4.32;;;25.10;99.90;;;;;;4834549;29;37696;-80
2023/05/31 12:20:11;;;;;;;11.27;4.70;;;25.00;99.90;;;;;;4855470;29;39919;-80
2023/05/31 12:22:37;;;;;;;11.65;5.05;;;25.20;99.90;;;;;;4857754;29;38681;-80
2023/05/31 12:25:03;;;;;;;12.90;5.22;;;25.40;1.00;;;;;;4856098;29;36936;-80
2023/05/31 12:27:30;;;;;;;26.50;5.93;;;25.40;99.90;;;;;;4857212;29;49033;-80
2023/05/31 12:30:02;;;;;;;12.65;5.80;;;25.40;99.90;;;;;;4856720;29;38998;-80
2023/05/31 12:32:29;;;;;;;12.98;5.70;;;25.40;99.90;;;;;;4840568;29;37402;-81
2023/05/31 12:35:06;;;;;;;9.48;4.80;;;25.20;99.90;;;;;;4855962;29;36927;-80
2023/05/31 12:37:39;;;;;;;6.93;4.10;;;24.90;99.90;;;;;;4855927;29;48544;-80
2023/05/31 12:40:09;;;;;;;16.58;5.20;;;25.00;99.90;;;;;;4855653;29;39041;-81
2023/05/31 12:42:35;;;;;;;11.30;5.22;;;25.20;99.90;;;;;;4851697;29;38719;-79
2023/05/31 12:45:06;;;;;;;9.25;5.13;;;25.20;99.90;;;;;;4857464;29;38008;-81